Terminal Aerodrome Forecast
Issued by NWS

Home | Current Version | Previous Version | Text Only | Print | Product List | Glossary On
Versions: 1 2 3 4 5 6 7 8 9 10 11 12 13 14 15 16 17 18 19 20 21 22 23 24 25 26 27 28
000
FTUS45 KSLC 292320
TAFLGU
TAF
KLGU 292320Z 3000/3024 22007KT P6SM SCT150
     FM300600 17006KT P6SM FEW080 BKN150
     FM301500 20008KT P6SM SCT080 BKN120
     FM302000 22013G23KT P6SM VCSH BKN080 BKN120=

USA.gov is the U.S. government's official web portal to all federal, state and local government web resources and services.